Data for 03/25/2019

Time Sea-Level Adjusted Pressure Absolute Pressure Temperature Relative Humidity Dew Point   
(mb) (inHg) (mb) (inHg) (C) (F) (%) (C) (F)
00:05 1023 30.21 852 25.16 1.6 34.8 89 0 32.1
00:10 1023 30.21 852 25.16 1.6 35 89 0.1 32.1
00:15 1023 30.21 852 25.16 1.8 35.2 89 0.2 32.3
00:20 1023 30.21 852 25.16 1.8 35.3 89 0.2 32.4
00:25 1023 30.21 853 25.19 1.8 35.3 89 0.2 32.4
00:30 1023 30.21 853 25.19 1.9 35.4 89 0.2 32.4
00:35 1023 30.21 852 25.16 2 35.5 88 0.2 32.4
00:40 1023 30.21 853 25.19 1.9 35.4 88 0.1 32.2
00:45 1023 30.21 852 25.16 1.8 35.3 88 0.1 32.1
00:50 1023 30.21 852 25.16 1.8 35.2 88 -0 32
00:55 1023 30.21 853 25.19 1.7 35.1 88 -0 31.9
01:00 1023 30.21 853 25.19 1.7 35 88 -0.1 31.8
01:05 1023 30.21 853 25.19 1.7 35 88 -0.1 31.8
01:10 1023 30.21 853 25.19 1.7 35 88 -0.1 31.8
01:15 1023 30.21 853 25.19 1.7 35.1 88 -0.1 31.8
01:20 1023 30.21 853 25.19 1.7 35.1 88 -0 31.9
01:25 1024 30.24 853 25.19 1.7 35 88 -0.1 31.8
01:30 1024 30.24 853 25.19 1.5 34.7 88 -0.2 31.6
01:35 1024 30.24 853 25.19 1.5 34.7 89 -0.2 31.7
01:40 1024 30.24 853 25.19 1.5 34.7 89 -0.2 31.7
01:45 1024 30.24 853 25.19 1.4 34.6 89 -0.2 31.7
01:50 1024 30.24 853 25.19 1.5 34.6 89 -0.1 31.7
01:55 1024 30.24 853 25.19 1.4 34.5 89 -0.2 31.7
02:00 1024 30.24 853 25.19 1.3 34.3 90 -0.2 31.6
02:05 1024 30.24 853 25.19 1.3 34.3 90 -0.2 31.7
02:10 1024 30.24 853 25.19 1.2 34.2 90 -0.2 31.6
02:15 1024 30.24 853 25.19 1.2 34.2 90 -0.2 31.6
02:20 1024 30.24 853 25.19 1.2 34.1 90 -0.3 31.5
02:25 1024 30.24 853 25.19 1.2 34.1 90 -0.2 31.6
02:30 1024 30.24 853 25.19 1.1 34 90 -0.3 31.5
02:35 1024 30.24 853 25.19 1.1 33.9 91 -0.2 31.6
02:40 1024 30.24 853 25.19 1.2 34.1 91 -0.1 31.8
02:45 1024 30.24 853 25.19 1.2 34.2 91 -0.1 31.8
02:50 1024 30.24 853 25.19 1.2 34.2 91 -0.1 31.8
02:55 1024 30.24 853 25.19 1.3 34.4 91 -0 31.9
03:00 1024 30.24 853 25.19 1.3 34.4 90 -0.1 31.9
03:05 1024 30.24 853 25.19 1.3 34.3 90 -0.1 31.7
03:10 1024 30.24 853 25.19 1.2 34.1 90 -0.2 31.6
03:15 1024 30.24 853 25.19 1.2 34.1 91 -0.2 31.6
03:20 1024 30.24 853 25.19 1.1 34.1 91 -0.2 31.6
03:25 1024 30.24 853 25.19 1.1 34 91 -0.2 31.6
03:30 1024 30.24 853 25.19 1.1 33.9 91 -0.2 31.6
03:35 1024 30.24 853 25.19 1.1 33.9 91 -0.2 31.6
03:40 1024 30.24 853 25.19 1 33.8 91 -0.3 31.5
03:45 1024 30.24 853 25.19 1 33.8 91 -0.2 31.6
03:50 1024 30.24 853 25.19 1 33.8 91 -0.2 31.6
03:55 1024 30.24 853 25.19 1 33.7 92 -0.3 31.5
04:00 1024 30.24 853 25.19 1 33.7 92 -0.3 31.5
04:05 1024 30.24 853 25.19 0.9 33.7 92 -0.2 31.6
04:10 1024 30.24 853 25.19 1 33.8 92 -0.2 31.7
04:15 1024 30.24 853 25.19 1 33.8 92 -0.1 31.7
04:20 1024 30.24 853 25.19 1 33.8 92 -0.2 31.7
04:25 1024 30.24 853 25.19 1 33.8 92 -0.2 31.7
04:30 1024 30.24 853 25.19 1 33.8 92 -0.2 31.7
04:35 1024 30.24 853 25.19 1 33.8 92 -0.2 31.7
04:40 1024 30.24 853 25.19 1 33.7 92 -0.2 31.6
04:45 1024 30.24 853 25.19 0.9 33.6 92 -0.3 31.5
04:50 1024 30.24 853 25.19 0.9 33.7 92 -0.2 31.6
04:55 1024 30.24 853 25.19 1 33.8 92 -0.2 31.7
05:00 1024 30.24 853 25.19 0.9 33.7 92 -0.2 31.6
05:05 1024 30.24 853 25.19 0.9 33.6 92 -0.3 31.5
05:10 1024 30.24 853 25.19 0.9 33.5 92 -0.3 31.5
05:15 1024 30.24 853 25.19 0.9 33.6 92 -0.3 31.5
05:20 1024 30.24 853 25.19 0.9 33.6 92 -0.2 31.6
05:25 1024 30.24 853 25.19 0.9 33.7 92 -0.2 31.6
05:30 1024 30.24 853 25.19 0.9 33.6 92 -0.3 31.5
05:35 1024 30.24 853 25.19 0.8 33.4 92 -0.4 31.3
05:40 1024 30.24 853 25.19 0.8 33.4 92 -0.4 31.4
05:45 1024 30.24 853 25.19 0.7 33.3 92 -0.4 31.3
05:50 1024 30.24 853 25.19 0.7 33.3 92 -0.4 31.3
05:55 1024 30.24 853 25.19 0.7 33.3 92 -0.4 31.3
06:00 1024 30.24 853 25.19 0.7 33.3 92 -0.4 31.3
06:05 1024 30.24 853 25.19 0.7 33.3 92 -0.4 31.2
06:10 1024 30.24 853 25.19 0.7 33.3 92 -0.4 31.3
06:15 1024 30.24 853 25.19 0.7 33.3 92 -0.4 31.3
06:20 1024 30.24 853 25.19 0.7 33.3 92 -0.4 31.3
06:25 1024 30.24 853 25.19 0.6 33.1 92 -0.5 31.2
06:30 1024 30.24 853 25.19 0.6 33.1 92 -0.5 31.2
06:35 1024 30.24 853 25.19 0.6 33.1 93 -0.5 31.2
06:40 1024 30.24 853 25.19 0.6 33.1 93 -0.4 31.2
06:45 1024 30.24 853 25.19 0.7 33.3 93 -0.4 31.3
06:50 1024 30.24 853 25.19 0.9 33.6 93 -0.2 31.6
06:55 1024 30.24 853 25.19 0.7 33.3 92 -0.4 31.4
07:00 1024 30.24 853 25.19 0.7 33.3 93 -0.4 31.3
07:05 1024 30.24 853 25.19 0.8 33.4 93 -0.3 31.4
07:10 1024 30.24 853 25.19 0.8 33.4 93 -0.2 31.6
07:15 1024 30.24 853 25.19 0.8 33.4 93 -0.3 31.5
07:20 1024 30.24 853 25.19 0.7 33.3 93 -0.3 31.4
07:25 1024 30.24 853 25.19 0.8 33.4 93 -0.3 31.5
07:30 1024 30.24 853 25.19 0.7 33.3 93 -0.3 31.4
07:35 1024 30.24 853 25.19 0.8 33.5 93 -0.2 31.6
07:40 1024 30.24 853 25.19 0.8 33.4 93 -0.3 31.5
07:45 1024 30.24 853 25.19 0.8 33.5 93 -0.3 31.5
07:50 1024 30.24 854 25.22 0.7 33.3 92 -0.4 31.3
07:55 1024 30.24 854 25.22 0.7 33.2 93 -0.4 31.2
08:00 1024 30.24 854 25.22 0.6 33 92 -0.5 31
08:05 1024 30.24 854 25.22 0.6 33 93 -0.5 31.1
08:10 1024 30.24 854 25.22 0.7 33.2 92 -0.4 31.2
08:15 1024 30.24 854 25.22 0.7 33.3 92 -0.4 31.3
08:20 1024 30.24 854 25.22 0.8 33.4 92 -0.4 31.3
08:25 1024 30.24 854 25.22 0.8 33.4 92 -0.4 31.3
08:30 1024 30.24 854 25.22 0.8 33.5 92 -0.4 31.3
08:35 1025 30.27 854 25.22 0.9 33.7 92 -0.3 31.5
08:40 1025 30.27 854 25.22 1 33.9 91 -0.2 31.6
08:45 1024 30.24 854 25.22 1 33.8 91 -0.3 31.4
08:50 1024 30.24 854 25.22 1.1 33.9 91 -0.3 31.5
08:55 1024 30.24 854 25.22 1.2 34.2 91 -0.1 31.8
09:00 1024 30.24 854 25.22 1.4 34.5 90 -0.1 31.9
09:05 1025 30.27 854 25.22 1.5 34.6 90 0 32
09:10 1025 30.27 854 25.22 1.5 34.7 89 -0.1 31.7
09:15 1024 30.24 854 25.22 1.5 34.6 89 -0.1 31.8
09:20 1024 30.24 854 25.22 1.8 35.2 89 0.1 32.1
09:25 1024 30.24 854 25.22 2 35.7 87 0.2 32.3
09:30 1024 30.24 854 25.22 2.5 36.5 85 0.3 32.5
09:35 1024 30.24 854 25.22 3 37.4 81 0 32
09:40 1024 30.24 854 25.22 3.2 37.8 79 -0.1 31.9
09:45 1024 30.24 854 25.22 3.7 38.7 77 0.1 32.1
09:50 1024 30.24 854 25.22 4.7 40.5 73 0.3 32.6
09:55 1024 30.24 854 25.22 4.8 40.6 75 0.6 33.1
10:00 1024 30.24 854 25.22 5 41 69 -0.3 31.5
10:05 1024 30.24 854 25.22 5.2 41.4 67 -0.3 31.5
10:10 1024 30.24 854 25.22 5.6 42 66 -0.3 31.4
10:15 1024 30.24 854 25.22 5.8 42.4 65 -0.3 31.5
10:20 1024 30.24 854 25.22 6.2 43.1 63 -0.2 31.6
10:25 1024 30.24 854 25.22 6.2 43.2 62 -0.4 31.2
10:30 1024 30.24 854 25.22 5.9 42.7 63 -0.5 31
10:35 1024 30.24 854 25.22 6.3 43.4 62 -0.4 31.2
10:40 1024 30.24 854 25.22 6.4 43.6 62 -0.4 31.4
10:45 1024 30.24 854 25.22 6.8 44.2 61 -0.2 31.6
10:50 1024 30.24 853 25.19 7.1 44.7 57 -0.9 30.5
10:55 1024 30.24 853 25.19 7.3 45.2 57 -0.7 30.8
11:00 1024 30.24 853 25.19 7.7 45.9 57 -0.3 31.4
11:05 1024 30.24 853 25.19 7.6 45.6 54 -1.1 30.1
11:10 1024 30.24 853 25.19 7.5 45.4 55 -0.9 30.3
11:15 1024 30.24 853 25.19 7.6 45.6 56 -0.6 30.9
11:20 1024 30.24 853 25.19 7.7 45.8 59 0.2 32.3
11:25 1024 30.24 853 25.19 7.7 45.9 57 -0.3 31.4
11:30 1024 30.24 853 25.19 8.8 47.8 53 -0.3 31.5
11:35 1024 30.24 853 25.19 9.1 48.3 51 -0.5 31.1
11:40 1024 30.24 853 25.19 9.1 48.4 51 -0.5 31.2
11:45 1024 30.24 853 25.19 8.6 47.4 51 -1 30.1
11:50 1024 30.24 853 25.19 7.4 45.4 52 -1.8 28.8
11:55 1024 30.24 853 25.19 7.7 45.9 50 -1.9 28.6
12:00 1024 30.24 853 25.19 8.7 47.7 48 -1.5 29.2
12:05 1024 30.24 853 25.19 8.2 46.8 54 -0.5 31.1
12:10 1024 30.24 853 25.19 7.5 45.5 57 -0.4 31.2
12:15 1024 30.24 853 25.19 7.9 46.1 56 -0.3 31.4
12:20 1024 30.24 853 25.19 8 46.5 54 -0.7 30.7
12:25 1023 30.21 853 25.19 7.6 45.6 56 -0.6 30.9
12:30 1023 30.21 853 25.19 7.4 45.4 54 -1.3 29.6
12:35 1023 30.21 853 25.19 8.4 47.1 47 -2.3 27.9
12:40 1023 30.21 852 25.16 8.8 47.9 56 0.5 33
12:45 1023 30.21 852 25.16 8.2 46.8 53 -0.8 30.5
12:50 1023 30.21 852 25.16 7.5 45.5 56 -0.8 30.6
12:55 1023 30.21 852 25.16 7.6 45.6 48 -2.8 27
13:00 1023 30.21 852 25.16 7.5 45.5 47 -3.2 26.2
13:05 1023 30.21 852 25.16 7.6 45.6 47 -2.9 26.8
13:10 1023 30.21 852 25.16 8.2 46.8 45 -2.8 26.9
13:15 1023 30.21 852 25.16 8.7 47.7 44 -2.7 27.1
13:20 1023 30.21 852 25.16 9.4 48.8 45 -2.1 28.3
13:25 1023 30.21 852 25.16 9.2 48.5 45 -2.2 28
13:30 1023 30.21 852 25.16 9.5 49 44 -2.2 28
13:35 1023 30.21 852 25.16 9.3 48.8 42 -3 26.6
13:40 1023 30.21 852 25.16 9.7 49.5 42 -2.5 27.5
13:45 1023 30.21 852 25.16 9.9 49.7 39 -3.5 25.7
13:50 1023 30.21 852 25.16 10.3 50.6 36 -4.2 24.5
13:55 1023 30.21 852 25.16 10 50 41 -2.6 27.2
14:00 1023 30.21 852 25.16 9.2 48.5 42 -3.2 26.3
14:05 1023 30.21 852 25.16 9.8 49.6 40 -3 26.6
14:10 1023 30.21 852 25.16 8.6 47.5 45 -2.6 27.4
14:15 1023 30.21 852 25.16 8.7 47.6 43 -3.1 26.5
14:20 1023 30.21 852 25.16 9.5 49 43 -2.5 27.4
14:25 1023 30.21 852 25.16 9 48.1 42 -3.2 26.3
14:30 1023 30.21 852 25.16 8.4 47 44 -3 26.5
14:35 1023 30.21 852 25.16 8.4 47.1 44 -3.2 26.2
14:40 1023 30.21 852 25.16 8.3 46.9 43 -3.5 25.7
14:45 1022 30.18 852 25.16 10.1 50.3 38 -3.5 25.8
14:50 1022 30.18 852 25.16 9.6 49.2 41 -3.1 26.3
14:55 1022 30.18 852 25.16 8.4 47.2 39 -4.7 23.6
15:00 1022 30.18 851 25.13 8.7 47.7 42 -3.3 26
15:05 1022 30.18 851 25.13 9.2 48.5 41 -3.5 25.8
15:10 1022 30.18 851 25.13 9.2 48.6 46 -1.7 29
15:15 1022 30.18 851 25.13 9.2 48.6 38 -4.2 24.5
15:20 1022 30.18 851 25.13 8.9 48 40 -4.1 24.7
15:25 1022 30.18 851 25.13 9.9 49.9 35 -4.9 23.2
15:30 1022 30.18 851 25.13 9.9 49.7 36 -4.6 23.8
15:35 1022 30.18 851 25.13 9.4 49 37 -4.4 24.1
15:40 1022 30.18 851 25.13 9.9 49.8 36 -4.4 24
15:45 1022 30.18 851 25.13 10.6 51 37 -3.4 25.9
15:50 1022 30.18 851 25.13 11.4 52.4 32 -4.6 23.8
15:55 1022 30.18 851 25.13 11.7 53 33 -4 24.9
16:00 1022 30.18 851 25.13 11.2 52.1 37 -2.8 26.9
16:05 1022 30.18 851 25.13 9.6 49.2 40 -3.4 25.9
16:10 1022 30.18 851 25.13 10.1 50.2 38 -3.7 25.4
16:15 1022 30.18 851 25.13 10 50.1 42 -2.3 27.9
16:20 1022 30.18 851 25.13 9.5 49.2 43 -2.4 27.7
16:25 1022 30.18 851 25.13 10.3 50.5 39 -3.1 26.3
16:30 1022 30.18 851 25.13 10.6 51 37 -3.3 26
16:35 1022 30.18 851 25.13 10.4 50.7 39 -2.8 26.9
16:40 1022 30.18 851 25.13 10.2 50.4 38 -3.3 26
16:45 1022 30.18 851 25.13 10.5 50.9 35 -4.3 24.3
16:50 1022 30.18 851 25.13 10.5 50.8 39 -2.9 26.8
16:55 1022 30.18 851 25.13 9.6 49.2 43 -2.3 27.8
17:00 1022 30.18 851 25.13 10.2 50.3 39 -3.2 26.3
17:05 1022 30.18 851 25.13 10.6 51 38 -3 26.6
17:10 1022 30.18 851 25.13 10.1 50.1 40 -2.8 26.9
17:15 1022 30.18 851 25.13 10.3 50.6 39 -3.1 26.5
17:20 1021 30.15 851 25.13 10.4 50.6 39 -2.8 26.9
17:25 1021 30.15 851 25.13 10.3 50.5 39 -3.1 26.5
17:30 1021 30.15 851 25.13 10 50 40 -2.9 26.8
17:35 1021 30.15 850 25.1 9.9 49.8 40 -3.2 26.3
17:40 1021 30.15 850 25.1 10 50 39 -3.4 25.9
17:45 1021 30.15 850 25.1 10.1 50.2 38 -3.5 25.7
17:50 1021 30.15 850 25.1 10.4 50.6 38 -3.3 26.1
17:55 1021 30.15 850 25.1 10 50 41 -2.6 27.3
18:00 1021 30.15 850 25.1 9.2 48.5 42 -3.2 26.3
18:05 1021 30.15 850 25.1 9.4 48.9 40 -3.4 26
18:10 1021 30.15 850 25.1 9.8 49.7 41 -2.9 26.8
18:15 1021 30.15 850 25.1 9.5 49.1 42 -2.9 26.8
18:20 1021 30.15 850 25.1 9.2 48.6 41 -3.2 26.3
18:25 1021 30.15 850 25.1 9 48.1 41 -3.4 25.9
18:30 1021 30.15 850 25.1 8.9 48 41 -3.7 25.4
18:35 1021 30.15 850 25.1 8.8 47.9 42 -3.5 25.8
18:40 1021 30.15 850 25.1 8.6 47.4 42 -3.5 25.6
18:45 1021 30.15 850 25.1 8.4 47.1 43 -3.5 25.8
18:50 1021 30.15 850 25.1 8.2 46.8 44 -3.4 25.9
18:55 1021 30.15 850 25.1 8 46.4 44 -3.5 25.7
19:00 1021 30.15 850 25.1 7.9 46.2 44 -3.6 25.4
19:05 1021 30.15 850 25.1 7.8 46 44 -3.5 25.6
19:10 1021 30.15 850 25.1 7.7 45.9 45 -3.5 25.7
19:15 1021 30.15 850 25.1 7.7 45.8 44 -3.7 25.4
19:20 1021 30.15 850 25.1 7.7 45.9 44 -3.9 25
19:25 1021 30.15 850 25.1 8 46.4 43 -3.9 25.1
19:30 1021 30.15 850 25.1 8.1 46.6 44 -3.3 26
19:35 1021 30.15 850 25.1 7.4 45.4 46 -3.4 25.9
19:40 1021 30.15 850 25.1 6.9 44.4 46 -3.9 25.1
19:45 1021 30.15 850 25.1 6.8 44.3 47 -3.8 25.2
19:50 1020 30.12 850 25.1 6.9 44.5 47 -3.7 25.4
19:55 1020 30.12 850 25.1 7 44.6 47 -3.4 25.9
20:00 1020 30.12 850 25.1 6.8 44.3 49 -3.2 26.2
20:05 1021 30.15 850 25.1 6.6 43.9 50 -3.2 26.3
20:10 1021 30.15 850 25.1 6.3 43.3 50 -3.3 26.1
20:15 1020 30.12 850 25.1 5.9 42.5 52 -3.2 26.3
20:20 1021 30.15 850 25.1 5.3 41.6 53 -3.5 25.7
20:25 1020 30.12 850 25.1 5.3 41.5 53 -3.5 25.7
20:30 1020 30.12 850 25.1 5.5 41.9 53 -3.3 26
20:35 1020 30.12 850 25.1 5.4 41.8 53 -3.5 25.8
20:40 1020 30.12 850 25.1 5.2 41.3 55 -3.1 26.4
20:45 1021 30.15 850 25.1 4.9 40.7 56 -3.1 26.4